Time;durP1;ratioP1;P1;durP2;ratioP2;P2;SDS_P1;SDS_P2;PMS_P1;PMS_P2;Temp;Humidity;BMP_temperature;BMP_pressure;BME280_temperature;BME280_humidity;BME280_pressure;Samples;Min_cycle;Max_cycle;Signal;HPM_P1;HPM_P2
2022/06/27 00:00:58;;;;;;;0.30;0.30;;;;;;;;;;7391891;19;20006;-76
2022/06/27 00:03:23;;;;;;;0.43;0.40;;;;;;;;;;7392002;19;20470;-76
2022/06/27 00:05:52;;;;;;;0.65;0.40;;;;;;;;;;7386671;19;20014;-76
2022/06/27 00:08:17;;;;;;;0.30;0.30;;;;;;;;;;7387223;19;20007;-76
2022/06/27 00:10:42;;;;;;;0.50;0.43;;;;;;;;;;7388925;19;20011;-76
2022/06/27 00:13:08;;;;;;;0.40;0.30;;;;;;;;;;7392805;19;19987;-76
2022/06/27 00:15:33;;;;;;;0.30;0.30;;;;;;;;;;7383170;19;20106;-76
2022/06/27 00:17:58;;;;;;;0.60;0.50;;;;;;;;;;7390315;19;20339;-77
2022/06/27 00:20:24;;;;;;;0.25;0.25;;;;;;;;;;7390788;19;20010;-76
2022/06/27 00:22:51;;;;;;;0.73;0.40;;;;;;;;;;7391859;19;20003;-76
2022/06/27 00:25:16;;;;;;;0.43;0.43;;;;;;;;;;7387398;19;20017;-76
2022/06/27 00:27:42;;;;;;;0.30;0.30;;;;;;;;;;7391353;19;20006;-77
2022/06/27 00:30:08;;;;;;;0.40;0.40;;;;;;;;;;7392017;19;20031;-76
2022/06/27 00:32:33;;;;;;;0.68;0.40;;;;;;;;;;7391291;19;19999;-76
2022/06/27 00:34:59;;;;;;;5.50;0.40;;;;;;;;;;7388416;19;20006;-77
2022/06/27 00:37:25;;;;;;;0.55;0.47;;;;;;;;;;7389629;19;20010;-76
2022/06/27 00:39:50;;;;;;;0.40;0.40;;;;;;;;;;7391360;19;20021;-76
2022/06/27 00:42:16;;;;;;;0.32;0.30;;;;;;;;;;7393865;19;20023;-77
2022/06/27 00:44:43;;;;;;;2.50;0.70;;;;;;;;;;7390521;19;20042;-76
2022/06/27 00:47:13;;;;;;;1.10;0.60;;;;;;;;;;7393427;19;20497;-77
2022/06/27 00:49:39;;;;;;;0.30;0.30;;;;;;;;;;7387862;19;20396;-76
2022/06/27 00:52:07;;;;;;;0.28;0.28;;;;;;;;;;7392088;19;20030;-77
2022/06/27 00:54:35;;;;;;;0.60;0.50;;;;;;;;;;7390220;19;20016;-77
2022/06/27 00:57:00;;;;;;;1.38;0.30;;;;;;;;;;7393173;19;20006;-77
2022/06/27 00:59:25;;;;;;;0.30;0.30;;;;;;;;;;7390762;19;20058;-76
2022/06/27 01:01:51;;;;;;;0.32;0.32;;;;;;;;;;7392607;19;20002;-77
2022/06/27 01:04:16;;;;;;;3.78;0.55;;;;;;;;;;7389355;19;20099;-77
2022/06/27 01:06:42;;;;;;;0.30;0.30;;;;;;;;;;7391761;19;20002;-76
2022/06/27 01:09:07;;;;;;;0.70;0.47;;;;;;;;;;7392020;19;20006;-77
2022/06/27 01:11:33;;;;;;;0.20;0.20;;;;;;;;;;7391262;19;20027;-76
2022/06/27 01:14:00;;;;;;;1.05;0.47;;;;;;;;;;7383156;19;20038;-77
2022/06/27 01:16:25;;;;;;;3.25;0.40;;;;;;;;;;7390260;19;20038;-77
2022/06/27 01:18:50;;;;;;;0.52;0.38;;;;;;;;;;7389061;19;20017;-76
2022/06/27 01:21:24;;;;;;;2.00;0.52;;;;;;;;;;7390435;19;20473;-77
2022/06/27 01:23:51;;;;;;;0.70;0.50;;;;;;;;;;7385728;19;20028;-77
2022/06/27 01:26:18;;;;;;;0.30;0.30;;;;;;;;;;7389183;19;20088;-76
2022/06/27 01:28:43;;;;;;;0.77;0.57;;;;;;;;;;7387705;19;20002;-77
2022/06/27 01:31:12;;;;;;;3.45;0.57;;;;;;;;;;7394348;19;20035;-77
2022/06/27 01:33:38;;;;;;;0.38;0.30;;;;;;;;;;7389655;19;20151;-77
2022/06/27 01:38:53;;;;;;;0.95;0.20;;;;;;;;;;7393529;19;20018;-77
2022/06/27 01:41:18;;;;;;;1.98;0.60;;;;;;;;;;7398579;19;20015;-76
2022/06/27 01:43:45;;;;;;;0.50;0.30;;;;;;;;;;7398102;19;20010;-77
2022/06/27 01:46:11;;;;;;;0.98;0.40;;;;;;;;;;7399336;19;20022;-76
2022/06/27 01:48:38;;;;;;;1.30;0.40;;;;;;;;;;7399462;19;20015;-77
2022/06/27 01:51:08;;;;;;;0.50;0.50;;;;;;;;;;7399482;19;20013;-77
2022/06/27 01:53:34;;;;;;;0.40;0.30;;;;;;;;;;7397703;19;20014;-77
2022/06/27 01:56:00;;;;;;;0.38;0.38;;;;;;;;;;7397674;19;20024;-77
2022/06/27 01:58:25;;;;;;;0.80;0.40;;;;;;;;;;7395744;19;20082;-77
2022/06/27 02:00:52;;;;;;;2.30;0.50;;;;;;;;;;7396867;19;19991;-76
2022/06/27 02:03:18;;;;;;;0.70;0.30;;;;;;;;;;7395034;19;20015;-76
2022/06/27 02:05:43;;;;;;;0.50;0.50;;;;;;;;;;7396331;19;20066;-76
2022/06/27 02:08:10;;;;;;;1.65;0.65;;;;;;;;;;7392801;19;20015;-76
2022/06/27 02:10:35;;;;;;;0.47;0.40;;;;;;;;;;7396603;19;20001;-77
2022/06/27 02:13:03;;;;;;;0.47;0.47;;;;;;;;;;7394062;19;20356;-76
2022/06/27 02:15:31;;;;;;;1.50;0.40;;;;;;;;;;7391699;19;20010;-76
2022/06/27 02:17:56;;;;;;;0.75;0.63;;;;;;;;;;7392997;19;20478;-76
2022/06/27 02:20:22;;;;;;;6.03;0.93;;;;;;;;;;7396872;19;20009;-76
2022/06/27 02:22:48;;;;;;;1.05;0.68;;;;;;;;;;7395029;19;20028;-77
2022/06/27 02:25:13;;;;;;;0.43;0.43;;;;;;;;;;7395486;19;19999;-76
2022/06/27 02:27:40;;;;;;;1.40;0.50;;;;;;;;;;7394313;19;20010;-77
2022/06/27 02:30:05;;;;;;;2.10;0.55;;;;;;;;;;7396700;19;20002;-76
2022/06/27 02:32:31;;;;;;;1.13;0.65;;;;;;;;;;7395619;19;20074;-77
2022/06/27 02:34:57;;;;;;;0.50;0.40;;;;;;;;;;7395433;19;19991;-76
2022/06/27 02:37:27;;;;;;;2.65;0.55;;;;;;;;;;7396380;19;20006;-77
2022/06/27 02:39:55;;;;;;;1.90;0.40;;;;;;;;;;7397571;19;20094;-76
2022/06/27 02:42:22;;;;;;;1.83;0.55;;;;;;;;;;7393467;19;20013;-76
2022/06/27 02:44:49;;;;;;;0.70;0.40;;;;;;;;;;7394199;19;20354;-76
2022/06/27 02:47:14;;;;;;;2.05;0.60;;;;;;;;;;7397081;19;20017;-77
2022/06/27 02:49:41;;;;;;;0.40;0.40;;;;;;;;;;7395097;19;20062;-77
2022/06/27 02:52:24;;;;;;;2.55;0.68;;;;;;;;;;7393234;19;20014;-77
2022/06/27 02:55:01;;;;;;;2.75;0.50;;;;;;;;;;7394468;19;20078;-77
2022/06/27 02:57:44;;;;;;;1.27;0.52;;;;;;;;;;7395188;19;20489;-77
2022/06/27 03:00:10;;;;;;;0.52;0.43;;;;;;;;;;7396277;19;20006;-77
2022/06/27 03:02:38;;;;;;;0.82;0.73;;;;;;;;;;7394096;19;20465;-77
2022/06/27 03:05:04;;;;;;;2.20;0.70;;;;;;;;;;7391216;19;20010;-77
2022/06/27 03:07:29;;;;;;;2.70;0.40;;;;;;;;;;7394020;19;20014;-77
2022/06/27 03:10:02;;;;;;;0.60;0.60;;;;;;;;;;7392981;19;20158;-77
2022/06/27 03:12:27;;;;;;;0.40;0.35;;;;;;;;;;7390193;19;20392;-77
2022/06/27 03:14:53;;;;;;;0.55;0.55;;;;;;;;;;7393552;19;20034;-76
2022/06/27 03:17:18;;;;;;;1.58;0.47;;;;;;;;;;7390677;19;20011;-77
2022/06/27 03:19:43;;;;;;;0.88;0.60;;;;;;;;;;7391111;19;20058;-77
2022/06/27 03:22:10;;;;;;;1.33;0.70;;;;;;;;;;7387446;19;20006;-76
2022/06/27 03:24:36;;;;;;;0.68;0.50;;;;;;;;;;7387854;19;20027;-77
2022/06/27 03:27:01;;;;;;;0.52;0.50;;;;;;;;;;7393831;19;20360;-77
2022/06/27 03:29:27;;;;;;;2.03;0.70;;;;;;;;;;7391250;19;19998;-77
2022/06/27 03:31:52;;;;;;;0.47;0.47;;;;;;;;;;7390154;19;20010;-77
2022/06/27 03:34:17;;;;;;;0.70;0.70;;;;;;;;;;7382021;19;20497;-77
2022/06/27 03:36:44;;;;;;;0.60;0.60;;;;;;;;;;7393221;19;20529;-76
2022/06/27 03:39:11;;;;;;;0.80;0.57;;;;;;;;;;7391828;19;20002;-79
2022/06/27 03:41:37;;;;;;;1.83;0.70;;;;;;;;;;7398126;19;20026;-78
2022/06/27 03:44:04;;;;;;;0.50;0.50;;;;;;;;;;7396319;19;20014;-78
2022/06/27 03:46:29;;;;;;;3.22;0.63;;;;;;;;;;7395006;19;20023;-77
2022/06/27 03:51:38;;;;;;;2.05;0.75;;;;;;;;;;7398101;19;20861;-78
2022/06/27 03:54:03;;;;;;;3.25;0.93;;;;;;;;;;7391983;19;20457;-78
2022/06/27 03:56:29;;;;;;;0.55;0.50;;;;;;;;;;7391922;19;20363;-75
2022/06/27 03:58:54;;;;;;;2.10;0.80;;;;;;;;;;7389152;19;20022;-76
2022/06/27 04:01:20;;;;;;;4.15;0.70;;;;;;;;;;7395290;19;20541;-76
2022/06/27 04:03:45;;;;;;;1.77;0.50;;;;;;;;;;7391742;19;20351;-76
2022/06/27 04:06:10;;;;;;;1.10;0.63;;;;;;;;;;7389817;19;20488;-75
2022/06/27 04:08:36;;;;;;;1.55;0.93;;;;;;;;;;7386896;19;20014;-77
2022/06/27 04:11:01;;;;;;;1.40;0.65;;;;;;;;;;7390220;19;20067;-75
2022/06/27 04:13:26;;;;;;;1.45;0.70;;;;;;;;;;7389460;19;20026;-75
2022/06/27 04:15:52;;;;;;;0.93;0.55;;;;;;;;;;7387844;19;19998;-76
2022/06/27 04:18:18;;;;;;;2.97;0.80;;;;;;;;;;7385008;19;20014;-76
2022/06/27 04:20:43;;;;;;;0.47;0.47;;;;;;;;;;7390268;19;20010;-78
2022/06/27 04:23:09;;;;;;;1.88;0.70;;;;;;;;;;7388254;19;20007;-76
2022/06/27 04:25:34;;;;;;;0.85;0.43;;;;;;;;;;7388858;19;20007;-76
2022/06/27 04:27:59;;;;;;;2.33;0.63;;;;;;;;;;7390790;19;19997;-74
2022/06/27 04:30:25;;;;;;;0.45;0.45;;;;;;;;;;7391634;19;20014;-77
2022/06/27 04:32:51;;;;;;;3.83;0.82;;;;;;;;;;7389130;19;20003;-76
2022/06/27 04:35:17;;;;;;;0.93;0.70;;;;;;;;;;7386324;19;20070;-76
2022/06/27 04:37:44;;;;;;;0.70;0.70;;;;;;;;;;7390200;19;20027;-76
2022/06/27 04:40:13;;;;;;;0.98;0.80;;;;;;;;;;7387594;19;20012;-76
2022/06/27 04:42:40;;;;;;;0.52;0.40;;;;;;;;;;7390170;19;20479;-76
2022/06/27 04:45:11;;;;;;;0.57;0.57;;;;;;;;;;7383695;19;20010;-76
2022/06/27 04:47:39;;;;;;;1.25;0.60;;;;;;;;;;7389963;19;20027;-77
2022/06/27 04:50:05;;;;;;;0.90;0.80;;;;;;;;;;7390315;19;20095;-75
2022/06/27 04:52:30;;;;;;;1.38;0.75;;;;;;;;;;7389604;19;20007;-76
2022/06/27 04:54:56;;;;;;;4.25;0.90;;;;;;;;;;7389078;19;20006;-76
2022/06/27 04:57:22;;;;;;;3.42;0.90;;;;;;;;;;7390421;19;20006;-76
2022/06/27 04:59:49;;;;;;;2.92;0.80;;;;;;;;;;7387296;19;20470;-75
2022/06/27 05:02:15;;;;;;;3.22;1.00;;;;;;;;;;7389585;19;20521;-76
2022/06/27 05:04:40;;;;;;;1.60;0.70;;;;;;;;;;7390629;19;20115;-76
2022/06/27 05:07:06;;;;;;;2.58;0.77;;;;;;;;;;7389015;19;20011;-76
2022/06/27 05:09:31;;;;;;;0.82;0.80;;;;;;;;;;7389211;19;20002;-77
2022/06/27 05:11:56;;;;;;;0.65;0.63;;;;;;;;;;7391169;19;20353;-77
2022/06/27 05:14:22;;;;;;;2.70;0.80;;;;;;;;;;7384100;19;20010;-73
2022/06/27 05:16:47;;;;;;;1.45;0.90;;;;;;;;;;7395422;19;20014;-74
2022/06/27 05:19:13;;;;;;;1.65;0.70;;;;;;;;;;7349974;19;20010;-75
2022/06/27 05:21:38;;;;;;;5.15;0.90;;;;;;;;;;7398318;19;20014;-75
2022/06/27 05:24:04;;;;;;;1.90;1.00;;;;;;;;;;7394750;19;20025;-75
2022/06/27 05:26:29;;;;;;;3.60;0.80;;;;;;;;;;7395798;19;20006;-75
2022/06/27 05:28:55;;;;;;;0.60;0.60;;;;;;;;;;7397317;19;20367;-75
2022/06/27 05:31:21;;;;;;;0.82;0.82;;;;;;;;;;7397969;19;20069;-75
2022/06/27 05:33:46;;;;;;;1.88;0.90;;;;;;;;;;7392735;19;20017;-75
2022/06/27 05:36:11;;;;;;;1.33;0.70;;;;;;;;;;7398893;19;20382;-76
2022/06/27 05:38:39;;;;;;;1.30;0.80;;;;;;;;;;7395997;19;20003;-76
2022/06/27 05:41:04;;;;;;;2.80;0.90;;;;;;;;;;7395660;19;20018;-75
2022/06/27 05:43:30;;;;;;;1.05;0.80;;;;;;;;;;7394704;19;20393;-75
2022/06/27 05:45:56;;;;;;;1.20;0.75;;;;;;;;;;7393720;19;20473;-75
2022/06/27 05:48:22;;;;;;;1.88;0.90;;;;;;;;;;7394496;19;20010;-75
2022/06/27 05:50:47;;;;;;;1.40;0.70;;;;;;;;;;7396361;19;20007;-75
2022/06/27 05:53:13;;;;;;;4.05;1.00;;;;;;;;;;7395634;19;20034;-75
2022/06/27 05:55:40;;;;;;;2.38;0.70;;;;;;;;;;7397879;19;20007;-75
2022/06/27 05:58:08;;;;;;;3.83;0.75;;;;;;;;;;7396018;19;20343;-75
2022/06/27 06:00:34;;;;;;;1.58;1.02;;;;;;;;;;7397269;19;20014;-75
2022/06/27 06:03:00;;;;;;;0.73;0.70;;;;;;;;;;7397471;19;20014;-75
2022/06/27 06:05:26;;;;;;;0.80;0.80;;;;;;;;;;7391543;19;20019;-76
2022/06/27 06:07:51;;;;;;;1.38;0.90;;;;;;;;;;7384915;19;20053;-77
2022/06/27 06:10:17;;;;;;;0.60;0.60;;;;;;;;;;7392872;19;20401;-77
2022/06/27 06:12:42;;;;;;;1.05;0.80;;;;;;;;;;7391945;19;20010;-76
2022/06/27 06:15:08;;;;;;;1.38;0.77;;;;;;;;;;7389711;19;20023;-77
2022/06/27 06:17:36;;;;;;;1.30;0.77;;;;;;;;;;7395386;19;20006;-77
2022/06/27 06:20:06;;;;;;;1.75;0.65;;;;;;;;;;7394851;19;20473;-77
2022/06/27 06:22:32;;;;;;;0.70;0.70;;;;;;;;;;7395106;19;20724;-77
2022/06/27 06:24:58;;;;;;;0.80;0.52;;;;;;;;;;7389223;19;20346;-77
2022/06/27 06:27:24;;;;;;;1.95;0.68;;;;;;;;;;7390998;19;20003;-76
2022/06/27 06:29:49;;;;;;;0.63;0.63;;;;;;;;;;7387957;19;20078;-77
2022/06/27 06:32:15;;;;;;;1.23;0.75;;;;;;;;;;7388808;19;20015;-77
2022/06/27 06:34:41;;;;;;;1.35;0.90;;;;;;;;;;7391680;19;20031;-78
2022/06/27 06:37:09;;;;;;;0.65;0.65;;;;;;;;;;7391297;19;20006;-75
2022/06/27 06:39:35;;;;;;;2.38;1.00;;;;;;;;;;7393997;19;20423;-75
2022/06/27 06:42:00;;;;;;;1.13;0.70;;;;;;;;;;7392921;19;20270;-75
2022/06/27 06:44:26;;;;;;;2.10;0.70;;;;;;;;;;7391978;19;20086;-75
2022/06/27 06:46:52;;;;;;;1.17;0.90;;;;;;;;;;7394701;19;20003;-76
2022/06/27 06:49:18;;;;;;;0.73;0.73;;;;;;;;;;7390994;19;20025;-76
2022/06/27 06:51:44;;;;;;;1.08;0.80;;;;;;;;;;7392887;19;20003;-74
2022/06/27 06:54:17;;;;;;;2.65;0.80;;;;;;;;;;7392493;19;20010;-75
2022/06/27 06:56:45;;;;;;;3.70;0.80;;;;;;;;;;7394696;19;20078;-77
2022/06/27 06:59:10;;;;;;;0.82;0.82;;;;;;;;;;7393678;19;20010;-76
2022/06/27 07:01:36;;;;;;;4.97;1.00;;;;;;;;;;7396289;19;20315;-76
2022/06/27 07:04:08;;;;;;;2.10;0.70;;;;;;;;;;7393058;19;20042;-78
2022/06/27 07:06:34;;;;;;;0.77;0.60;;;;;;;;;;7397957;19;20025;-78
2022/06/27 07:09:00;;;;;;;0.70;0.70;;;;;;;;;;7394077;19;20015;-78
2022/06/27 07:11:31;;;;;;;1.42;0.70;;;;;;;;;;7398301;19;20018;-78
2022/06/27 07:13:57;;;;;;;1.77;1.08;;;;;;;;;;7396342;19;20014;-77
2022/06/27 07:16:24;;;;;;;0.77;0.77;;;;;;;;;;7396170;19;20006;-78
2022/06/27 07:18:51;;;;;;;2.17;0.88;;;;;;;;;;7389193;19;20025;-78
2022/06/27 07:21:18;;;;;;;0.70;0.70;;;;;;;;;;7393708;19;20065;-78
2022/06/27 07:23:47;;;;;;;1.65;0.77;;;;;;;;;;7394872;19;20077;-78
2022/06/27 07:26:14;;;;;;;1.42;0.80;;;;;;;;;;7391563;19;20035;-78
2022/06/27 07:28:40;;;;;;;3.63;0.90;;;;;;;;;;7393609;19;20024;-78
2022/06/27 07:31:11;;;;;;;0.70;0.70;;;;;;;;;;7389960;19;20002;-76
2022/06/27 07:33:38;;;;;;;1.27;0.82;;;;;;;;;;7389727;19;21032;-77
2022/06/27 07:36:05;;;;;;;2.63;0.95;;;;;;;;;;7392755;19;21657;-77
2022/06/27 07:38:32;;;;;;;0.70;0.70;;;;;;;;;;7390010;19;20010;-77
2022/06/27 07:40:58;;;;;;;1.10;0.95;;;;;;;;;;7394632;19;19998;-77
2022/06/27 07:43:24;;;;;;;2.25;1.10;;;;;;;;;;7385981;19;20037;-77
2022/06/27 07:45:51;;;;;;;2.38;0.93;;;;;;;;;;7391095;19;20014;-77
2022/06/27 07:48:20;;;;;;;0.73;0.73;;;;;;;;;;7389845;19;20009;-78
2022/06/27 07:50:45;;;;;;;1.13;0.80;;;;;;;;;;7387375;19;20024;-77
2022/06/27 07:53:14;;;;;;;2.15;0.98;;;;;;;;;;7389027;19;20019;-78
2022/06/27 07:55:42;;;;;;;0.80;0.80;;;;;;;;;;7392536;19;20014;-78
2022/06/27 07:58:09;;;;;;;1.08;0.98;;;;;;;;;;7394198;19;20070;-78
2022/06/27 08:00:35;;;;;;;1.27;0.77;;;;;;;;;;7391032;19;20400;-78
2022/06/27 08:03:36;;;;;;;2.33;0.55;;;;;;;;;;7391238;19;20069;-77
2022/06/27 08:05:47;;;;;;;;;;;;;;;;;;7387729;19;20046;-78
2022/06/27 08:08:12;;;;;;;0.80;0.80;;;;;;;;;;7390447;19;20232;-78
2022/06/27 08:10:37;;;;;;;0.73;0.70;;;;;;;;;;7391701;19;20042;-77
2022/06/27 08:13:03;;;;;;;0.80;0.80;;;;;;;;;;7392412;19;20014;-78
2022/06/27 08:15:29;;;;;;;1.63;0.80;;;;;;;;;;7391653;19;20013;-77
2022/06/27 08:17:55;;;;;;;5.13;0.90;;;;;;;;;;7391744;19;20323;-78
2022/06/27 08:20:20;;;;;;;1.10;1.00;;;;;;;;;;7392580;19;20050;-77
2022/06/27 08:22:46;;;;;;;3.90;0.82;;;;;;;;;;7387714;19;20058;-77
2022/06/27 08:25:12;;;;;;;3.25;0.63;;;;;;;;;;7390551;19;20147;-78
2022/06/27 08:27:38;;;;;;;1.77;0.90;;;;;;;;;;7388605;19;19998;-78
2022/06/27 08:30:05;;;;;;;1.38;0.98;;;;;;;;;;7389981;19;20086;-78
2022/06/27 08:32:30;;;;;;;1.15;0.80;;;;;;;;;;7386598;19;20018;-78
2022/06/27 08:34:57;;;;;;;1.40;0.90;;;;;;;;;;7387773;19;20025;-78
2022/06/27 08:37:24;;;;;;;2.30;1.10;;;;;;;;;;7383201;19;20455;-77
2022/06/27 08:39:49;;;;;;;2.85;0.90;;;;;;;;;;7388537;19;20461;-77
2022/06/27 08:42:15;;;;;;;1.27;0.80;;;;;;;;;;7390135;19;20014;-77
2022/06/27 08:44:41;;;;;;;0.95;0.70;;;;;;;;;;7388707;19;20014;-78
2022/06/27 08:47:06;;;;;;;0.90;0.73;;;;;;;;;;7377535;19;20103;-77
2022/06/27 08:49:33;;;;;;;0.88;0.88;;;;;;;;;;7387009;19;20044;-77
2022/06/27 08:51:58;;;;;;;0.60;0.60;;;;;;;;;;7391640;19;20013;-77
2022/06/27 08:54:27;;;;;;;2.05;0.80;;;;;;;;;;7385898;19;20007;-77
2022/06/27 08:56:53;;;;;;;1.15;0.98;;;;;;;;;;7385965;19;20013;-76
2022/06/27 08:59:18;;;;;;;1.05;0.93;;;;;;;;;;7388380;19;20018;-77
2022/06/27 09:01:43;;;;;;;1.27;0.60;;;;;;;;;;7390434;19;20007;-77
2022/06/27 09:04:09;;;;;;;1.17;0.85;;;;;;;;;;7388292;19;20017;-76
2022/06/27 09:06:41;;;;;;;1.35;0.90;;;;;;;;;;7388686;19;20015;-77
2022/06/27 09:09:08;;;;;;;2.35;0.85;;;;;;;;;;7388875;19;20018;-77
2022/06/27 09:11:49;;;;;;;1.65;0.68;;;;;;;;;;7387096;19;20006;-77
2022/06/27 09:14:36;;;;;;;1.33;0.70;;;;;;;;;;7383250;19;20151;-77
2022/06/27 09:17:04;;;;;;;1.48;0.60;;;;;;;;;;7389792;19;20079;-77
2022/06/27 09:19:47;;;;;;;0.70;0.70;;;;;;;;;;7384628;19;20130;-77
2022/06/27 09:22:15;;;;;;;3.30;0.90;;;;;;;;;;7388084;19;20010;-77
2022/06/27 09:25:13;;;;;;;0.82;0.82;;;;;;;;;;7387825;19;20025;-77
2022/06/27 09:27:50;;;;;;;0.70;0.70;;;;;;;;;;7388729;19;20045;-78
2022/06/27 09:30:18;;;;;;;0.93;0.82;;;;;;;;;;7389875;19;20659;-77
2022/06/27 09:32:43;;;;;;;1.60;0.90;;;;;;;;;;7387782;19;20487;-77
2022/06/27 09:35:30;;;;;;;1.00;0.90;;;;;;;;;;7388263;19;20003;-77
2022/06/27 09:37:58;;;;;;;1.63;0.80;;;;;;;;;;7390164;19;20054;-77
2022/06/27 09:40:26;;;;;;;2.67;0.98;;;;;;;;;;7386084;19;20015;-77
2022/06/27 09:42:54;;;;;;;0.80;0.80;;;;;;;;;;7386898;19;20007;-77
2022/06/27 09:45:22;;;;;;;3.25;1.05;;;;;;;;;;7386349;19;20006;-78
2022/06/27 09:47:49;;;;;;;0.90;0.90;;;;;;;;;;7386649;19;20006;-78
2022/06/27 09:50:16;;;;;;;1.08;0.90;;;;;;;;;;7390445;19;20007;-78
2022/06/27 09:52:41;;;;;;;1.00;0.60;;;;;;;;;;7386417;19;20003;-78
2022/06/27 09:55:09;;;;;;;0.63;0.63;;;;;;;;;;7378293;19;19999;-79
2022/06/27 09:57:35;;;;;;;0.80;0.80;;;;;;;;;;7387182;19;20021;-78
2022/06/27 10:00:03;;;;;;;1.70;0.90;;;;;;;;;;7386070;19;20002;-78
2022/06/27 10:02:29;;;;;;;0.88;0.80;;;;;;;;;;7393111;19;20018;-79
2022/06/27 10:04:56;;;;;;;0.85;0.82;;;;;;;;;;7386427;19;20070;-78
2022/06/27 10:07:22;;;;;;;0.70;0.70;;;;;;;;;;7394353;19;20027;-78
2022/06/27 10:09:52;;;;;;;1.40;0.80;;;;;;;;;;7391381;19;20006;-78
2022/06/27 10:12:23;;;;;;;1.52;0.80;;;;;;;;;;7385514;19;20019;-78
2022/06/27 10:15:10;;;;;;;0.93;0.77;;;;;;;;;;7388545;19;20022;-79
2022/06/27 10:17:38;;;;;;;1.00;0.90;;;;;;;;;;7386980;19;20039;-79
2022/06/27 10:20:12;;;;;;;0.75;0.50;;;;;;;;;;7392142;19;20006;-78
2022/06/27 10:22:39;;;;;;;0.70;0.70;;;;;;;;;;7397234;19;20038;-78
2022/06/27 10:25:26;;;;;;;1.45;0.80;;;;;;;;;;7394242;19;20486;-78
2022/06/27 10:28:13;;;;;;;1.02;0.90;;;;;;;;;;7391291;19;20010;-77
2022/06/27 10:30:47;;;;;;;4.35;0.93;;;;;;;;;;7397672;19;20003;-78
2022/06/27 10:33:21;;;;;;;1.38;0.80;;;;;;;;;;7395635;19;20006;-78
2022/06/27 10:35:55;;;;;;;2.97;0.82;;;;;;;;;;7394980;19;20312;-77
2022/06/27 10:38:47;;;;;;;0.70;0.70;;;;;;;;;;7394431;19;20496;-78
2022/06/27 10:41:18;;;;;;;0.80;0.70;;;;;;;;;;7398774;19;20007;-78
2022/06/27 10:43:48;;;;;;;1.15;0.80;;;;;;;;;;7396601;19;20014;-78
2022/06/27 10:46:13;;;;;;;1.05;0.70;;;;;;;;;;7394894;19;20013;-78
2022/06/27 10:48:43;;;;;;;1.00;0.77;;;;;;;;;;7392996;19;20018;-78
2022/06/27 10:51:27;;;;;;;0.75;0.70;;;;;;;;;;7399415;19;20461;-79
2022/06/27 10:53:58;;;;;;;0.80;0.80;;;;;;;;;;7393538;19;20017;-78
2022/06/27 10:56:33;;;;;;;0.90;0.80;;;;;;;;;;7397966;19;20108;-78
2022/06/27 10:59:04;;;;;;;;;;;;;;;;;;7397040;19;20048;-79
2022/06/27 11:01:31;;;;;;;0.80;0.80;;;;;;;;;;7395477;19;20006;-78
2022/06/27 11:03:57;;;;;;;1.23;0.80;;;;;;;;;;7395678;19;20074;-78
2022/06/27 11:06:23;;;;;;;0.73;0.73;;;;;;;;;;7397477;19;20030;-79
2022/06/27 11:08:51;;;;;;;3.55;1.00;;;;;;;;;;7395408;19;20006;-78
2022/06/27 11:11:25;;;;;;;1.00;0.90;;;;;;;;;;7395330;19;20006;-78
2022/06/27 11:13:55;;;;;;;0.60;0.60;;;;;;;;;;7392347;19;20010;-79
2022/06/27 11:16:32;;;;;;;6.03;0.73;;;;;;;;;;7393890;19;20009;-78
2022/06/27 11:19:02;;;;;;;2.22;0.80;;;;;;;;;;7392635;19;20012;-78
2022/06/27 11:21:33;;;;;;;0.82;0.82;;;;;;;;;;7395827;19;20007;-78
2022/06/27 11:24:00;;;;;;;2.03;0.90;;;;;;;;;;7394222;19;20011;-78
2022/06/27 11:26:30;;;;;;;0.80;0.80;;;;;;;;;;7397576;19;20017;-79
2022/06/27 11:31:58;;;;;;;1.05;0.77;;;;;;;;;;7399666;19;20022;-79
2022/06/27 11:34:25;;;;;;;2.10;0.90;;;;;;;;;;7390795;19;20017;-79
2022/06/27 11:36:55;;;;;;;1.05;0.88;;;;;;;;;;7396640;19;20018;-78
2022/06/27 11:39:29;;;;;;;1.00;0.90;;;;;;;;;;7396191;19;20012;-78
2022/06/27 11:42:00;;;;;;;1.00;0.90;;;;;;;;;;7395136;19;20010;-78
2022/06/27 11:44:26;;;;;;;1.25;0.90;;;;;;;;;;7391580;19;20014;-78
2022/06/27 11:47:01;;;;;;;1.67;0.95;;;;;;;;;;7395111;19;20478;-78
2022/06/27 11:49:29;;;;;;;0.55;0.55;;;;;;;;;;7391104;19;20006;-78
2022/06/27 11:52:00;;;;;;;1.25;0.85;;;;;;;;;;7395238;19;20143;-78
2022/06/27 11:54:45;;;;;;;2.30;0.70;;;;;;;;;;7388182;19;20034;-78
2022/06/27 11:57:31;;;;;;;1.38;0.85;;;;;;;;;;7392685;19;20351;-78
2022/06/27 11:59:57;;;;;;;2.22;0.93;;;;;;;;;;7385990;19;20002;-78
2022/06/27 12:02:37;;;;;;;1.60;0.70;;;;;;;;;;7392234;19;20027;-79
2022/06/27 12:05:19;;;;;;;1.60;0.70;;;;;;;;;;7389874;19;20014;-78
2022/06/27 12:08:10;;;;;;;0.70;0.70;;;;;;;;;;7395213;19;20010;-81
2022/06/27 12:10:35;;;;;;;0.50;0.50;;;;;;;;;;7391518;19;20018;-79
2022/06/27 12:13:02;;;;;;;2.55;0.73;;;;;;;;;;7393800;19;20003;-80
2022/06/27 12:15:35;;;;;;;1.80;0.60;;;;;;;;;;7389902;19;20381;-79
2022/06/27 12:18:12;;;;;;;5.35;0.70;;;;;;;;;;7389369;19;20125;-80
2022/06/27 12:20:38;;;;;;;2.28;0.52;;;;;;;;;;7388483;19;20018;-79
2022/06/27 12:23:04;;;;;;;0.95;0.47;;;;;;;;;;7390846;19;20041;-79
2022/06/27 12:25:30;;;;;;;1.75;0.80;;;;;;;;;;7387994;19;20015;-79
2022/06/27 12:27:56;;;;;;;0.50;0.38;;;;;;;;;;7390125;19;20010;-79
2022/06/27 12:30:22;;;;;;;1.02;0.43;;;;;;;;;;7391915;19;20010;-79
2022/06/27 12:32:48;;;;;;;1.10;0.55;;;;;;;;;;7387858;19;20074;-78
2022/06/27 12:35:14;;;;;;;0.60;0.60;;;;;;;;;;7386966;19;20027;-79
2022/06/27 12:37:40;;;;;;;0.93;0.57;;;;;;;;;;7386531;19;20014;-78
2022/06/27 12:40:07;;;;;;;1.40;0.65;;;;;;;;;;7388353;19;20010;-79
2022/06/27 12:42:33;;;;;;;0.70;0.70;;;;;;;;;;7390621;19;20011;-79
2022/06/27 12:44:59;;;;;;;0.75;0.60;;;;;;;;;;7382912;19;20014;-79
2022/06/27 12:47:29;;;;;;;1.42;0.68;;;;;;;;;;7393731;19;20848;-79
2022/06/27 12:50:22;;;;;;;0.75;0.50;;;;;;;;;;7391663;19;20003;-79
2022/06/27 12:52:50;;;;;;;2.83;0.80;;;;;;;;;;7390619;19;20017;-79
2022/06/27 12:55:15;;;;;;;1.65;0.60;;;;;;;;;;7387959;19;20408;-78
2022/06/27 12:57:50;;;;;;;1.98;0.60;;;;;;;;;;7389690;19;20006;-79
2022/06/27 13:00:31;;;;;;;0.90;0.80;;;;;;;;;;7385860;19;20014;-79
2022/06/27 13:03:14;;;;;;;4.95;0.68;;;;;;;;;;7389571;19;20031;-79
2022/06/27 13:05:39;;;;;;;0.73;0.73;;;;;;;;;;7391580;19;20324;-78
2022/06/27 13:08:06;;;;;;;1.55;0.75;;;;;;;;;;7390283;19;20010;-79
2022/06/27 13:10:31;;;;;;;1.65;0.73;;;;;;;;;;7389750;19;20015;-79
2022/06/27 13:12:57;;;;;;;1.48;0.75;;;;;;;;;;7387037;19;20014;-79
2022/06/27 13:15:22;;;;;;;1.02;0.75;;;;;;;;;;7386387;19;20011;-79
2022/06/27 13:17:48;;;;;;;1.48;0.93;;;;;;;;;;7387273;19;20023;-79
2022/06/27 13:20:13;;;;;;;1.65;0.70;;;;;;;;;;7388448;19;20328;-79
2022/06/27 13:22:39;;;;;;;5.35;0.98;;;;;;;;;;7387717;19;20344;-79
2022/06/27 13:25:05;;;;;;;0.90;0.70;;;;;;;;;;7389053;19;20075;-78
2022/06/27 13:27:31;;;;;;;0.70;0.65;;;;;;;;;;7388187;19;20014;-78
2022/06/27 13:29:57;;;;;;;1.10;0.80;;;;;;;;;;7387234;19;20188;-78
2022/06/27 13:32:22;;;;;;;1.92;0.85;;;;;;;;;;7387760;19;20009;-78
2022/06/27 13:34:47;;;;;;;2.80;0.85;;;;;;;;;;7388290;19;20020;-79
2022/06/27 13:37:13;;;;;;;0.80;0.60;;;;;;;;;;7392025;19;20086;-79
2022/06/27 13:39:38;;;;;;;2.47;0.70;;;;;;;;;;7395818;19;20007;-78
2022/06/27 13:42:15;;;;;;;1.75;0.80;;;;;;;;;;7398148;19;20022;-76
2022/06/27 13:44:40;;;;;;;0.80;0.50;;;;;;;;;;7387474;19;20006;-77
2022/06/27 13:47:06;;;;;;;1.25;0.70;;;;;;;;;;7393906;19;20353;-77
2022/06/27 13:49:32;;;;;;;1.35;0.82;;;;;;;;;;7394260;19;20014;-78
2022/06/27 13:51:58;;;;;;;1.45;0.50;;;;;;;;;;7392840;19;20048;-76
2022/06/27 13:54:23;;;;;;;1.63;0.70;;;;;;;;;;7388693;19;20007;-75
2022/06/27 13:56:49;;;;;;;4.28;0.80;;;;;;;;;;7391965;19;20023;-76
2022/06/27 13:59:14;;;;;;;3.30;0.90;;;;;;;;;;7394531;19;20006;-75
2022/06/27 14:01:48;;;;;;;3.67;0.70;;;;;;;;;;7394664;19;20011;-76
2022/06/27 14:04:13;;;;;;;1.73;0.70;;;;;;;;;;7391554;19;20006;-76
2022/06/27 14:09:23;;;;;;;2.75;0.75;;;;;;;;;;7395740;19;20399;-77
2022/06/27 14:11:49;;;;;;;0.80;0.65;;;;;;;;;;7394628;19;20389;-76
2022/06/27 14:14:14;;;;;;;2.55;0.40;;;;;;;;;;7390867;19;20006;-77
2022/06/27 14:16:39;;;;;;;1.83;0.80;;;;;;;;;;7392785;19;20018;-75
2022/06/27 14:19:05;;;;;;;0.60;0.60;;;;;;;;;;7390910;19;20010;-76
2022/06/27 14:21:31;;;;;;;3.28;0.68;;;;;;;;;;7344696;19;20660;-76
2022/06/27 14:23:57;;;;;;;1.17;0.70;;;;;;;;;;7388512;19;20009;-76
2022/06/27 14:26:23;;;;;;;1.83;0.70;;;;;;;;;;7394915;19;20392;-75
2022/06/27 14:28:49;;;;;;;2.30;0.70;;;;;;;;;;7391675;19;20018;-76
2022/06/27 14:31:15;;;;;;;3.45;0.70;;;;;;;;;;7393904;19;20010;-76
2022/06/27 14:33:40;;;;;;;0.80;0.80;;;;;;;;;;7391001;19;20006;-78
2022/06/27 14:36:08;;;;;;;2.05;0.77;;;;;;;;;;7395298;19;20129;-77
2022/06/27 14:38:33;;;;;;;0.88;0.70;;;;;;;;;;7393059;19;20466;-78
2022/06/27 14:40:59;;;;;;;1.67;0.60;;;;;;;;;;7395075;19;20006;-78
2022/06/27 14:43:25;;;;;;;1.17;0.65;;;;;;;;;;7394688;19;20003;-77
2022/06/27 14:45:51;;;;;;;1.00;0.93;;;;;;;;;;7389239;19;21216;-78
2022/06/27 14:48:16;;;;;;;4.43;1.00;;;;;;;;;;7394240;19;20607;-76
2022/06/27 14:50:41;;;;;;;1.10;1.00;;;;;;;;;;7397384;19;20018;-76
2022/06/27 14:53:07;;;;;;;1.48;0.90;;;;;;;;;;7388820;19;20006;-76
2022/06/27 14:55:32;;;;;;;2.33;0.93;;;;;;;;;;7389672;19;20007;-75
2022/06/27 14:57:57;;;;;;;1.55;0.98;;;;;;;;;;7392717;19;20011;-76